Time;durP1;ratioP1;P1;durP2;ratioP2;P2;SDS_P1;SDS_P2;PMS_P1;PMS_P2;Temp;Humidity;BMP_temperature;BMP_pressure;BME280_temperature;BME280_humidity;BME280_pressure;Samples;Min_cycle;Max_cycle;Signal;HPM_P1;HPM_P2
2024/01/06 00:01:00;;;;;;;16.42;7.93;;;;;;;;;;5051580;28;20032;-84
2024/01/06 00:03:26;;;;;;;14.35;7.50;;;;;;;;;;5034486;28;20040;-84
2024/01/06 00:05:51;;;;;;;14.27;6.95;;;;;;;;;;5032416;28;20494;-83
2024/01/06 00:08:17;;;;;;;13.00;7.45;;;;;;;;;;5049943;28;20148;-83
2024/01/06 00:10:42;;;;;;;14.77;7.68;;;;;;;;;;5011297;28;20041;-82
2024/01/06 00:13:08;;;;;;;15.07;7.50;;;;;;;;;;5051799;28;20103;-84
2024/01/06 00:15:33;;;;;;;14.35;7.55;;;;;;;;;;5045971;28;20908;-84
2024/01/06 00:17:59;;;;;;;17.63;8.90;;;;;;;;;;5049432;28;20470;-83
2024/01/06 00:20:24;;;;;;;16.38;9.05;;;;;;;;;;5055639;28;20067;-86
2024/01/06 00:22:50;;;;;;;15.45;8.20;;;;;;;;;;5053239;28;20086;-85
2024/01/06 00:25:15;;;;;;;16.85;7.68;;;;;;;;;;5052157;28;20037;-85
2024/01/06 00:27:40;;;;;;;16.33;8.48;;;;;;;;;;5049520;28;20555;-85
2024/01/06 00:30:07;;;;;;;16.35;7.38;;;;;;;;;;5049784;28;20026;-85
2024/01/06 00:32:32;;;;;;;15.52;8.10;;;;;;;;;;5052336;28;20044;-84
2024/01/06 00:34:58;;;;;;;14.52;7.00;;;;;;;;;;5030455;28;20028;-85
2024/01/06 00:37:23;;;;;;;15.00;7.28;;;;;;;;;;5050342;28;20433;-82
2024/01/06 00:39:49;;;;;;;17.35;7.45;;;;;;;;;;5055973;28;20032;-83
2024/01/06 00:42:14;;;;;;;11.95;6.60;;;;;;;;;;5041469;28;20037;-84
2024/01/06 00:44:40;;;;;;;13.05;6.50;;;;;;;;;;5052994;28;20060;-83
2024/01/06 00:47:05;;;;;;;11.00;6.22;;;;;;;;;;5021758;28;20065;-85
2024/01/06 00:49:31;;;;;;;14.27;6.90;;;;;;;;;;5032406;28;20068;-85
2024/01/06 00:51:56;;;;;;;13.07;7.00;;;;;;;;;;5050564;28;20031;-83
2024/01/06 00:54:21;;;;;;;13.27;6.25;;;;;;;;;;5027306;28;20026;-82
2024/01/06 00:56:47;;;;;;;10.68;6.53;;;;;;;;;;5034257;28;20399;-83
2024/01/06 00:59:12;;;;;;;11.43;5.90;;;;;;;;;;5050442;28;20470;-83
2024/01/06 01:01:38;;;;;;;13.30;6.72;;;;;;;;;;5032544;28;20032;-83
2024/01/06 01:04:03;;;;;;;11.20;6.20;;;;;;;;;;5034746;28;20037;-83
2024/01/06 01:06:29;;;;;;;12.13;5.85;;;;;;;;;;5027763;28;20033;-83
2024/01/06 01:08:54;;;;;;;11.95;6.18;;;;;;;;;;5056935;28;20033;-83
2024/01/06 01:11:20;;;;;;;14.20;6.80;;;;;;;;;;5050027;28;20029;-84
2024/01/06 01:13:46;;;;;;;13.30;6.22;;;;;;;;;;5049769;28;20041;-84
2024/01/06 01:16:11;;;;;;;13.45;6.72;;;;;;;;;;5035087;28;20025;-85
2024/01/06 01:18:37;;;;;;;12.23;6.05;;;;;;;;;;5043344;28;20063;-83
2024/01/06 01:21:02;;;;;;;16.50;6.20;;;;;;;;;;5022329;28;20013;-84
2024/01/06 01:23:28;;;;;;;11.18;6.18;;;;;;;;;;5058240;28;20059;-85
2024/01/06 01:25:54;;;;;;;12.75;6.50;;;;;;;;;;5060391;28;20048;-85
2024/01/06 01:28:19;;;;;;;13.40;7.00;;;;;;;;;;5025712;28;20025;-83
2024/01/06 01:30:45;;;;;;;10.95;6.95;;;;;;;;;;5051773;28;20044;-83
2024/01/06 01:33:10;;;;;;;13.35;6.65;;;;;;;;;;5054275;28;20025;-85
2024/01/06 01:35:36;;;;;;;11.32;6.78;;;;;;;;;;5034526;28;20036;-85
2024/01/06 01:38:01;;;;;;;12.38;6.30;;;;;;;;;;5054169;28;20100;-84
2024/01/06 01:40:26;;;;;;;11.52;6.63;;;;;;;;;;5021692;28;20045;-84
2024/01/06 01:42:52;;;;;;;11.65;6.28;;;;;;;;;;5057037;28;20095;-85
2024/01/06 01:45:17;;;;;;;11.40;6.60;;;;;;;;;;5053863;28;20029;-82
2024/01/06 01:47:45;;;;;;;10.82;6.50;;;;;;;;;;5056732;28;20031;-82
2024/01/06 01:50:12;;;;;;;13.70;6.78;;;;;;;;;;5051856;28;20026;-85
2024/01/06 01:52:39;;;;;;;12.48;7.03;;;;;;;;;;5031390;28;20096;-85
2024/01/06 01:55:05;;;;;;;11.55;6.70;;;;;;;;;;5023201;28;20044;-85
2024/01/06 01:57:30;;;;;;;12.80;7.07;;;;;;;;;;5035631;28;20033;-84
2024/01/06 01:59:56;;;;;;;12.40;7.10;;;;;;;;;;5053569;28;20036;-84
2024/01/06 02:02:22;;;;;;;12.52;6.28;;;;;;;;;;5053185;28;20108;-83
2024/01/06 02:04:48;;;;;;;11.27;6.40;;;;;;;;;;5053609;28;20033;-84
2024/01/06 02:07:14;;;;;;;13.38;6.65;;;;;;;;;;5053780;28;20040;-83
2024/01/06 02:09:39;;;;;;;10.25;5.90;;;;;;;;;;5049429;28;20036;-83
2024/01/06 02:12:05;;;;;;;9.60;6.13;;;;;;;;;;5035497;28;20029;-84
2024/01/06 02:14:32;;;;;;;10.57;5.82;;;;;;;;;;5049478;28;20040;-83
2024/01/06 02:16:58;;;;;;;10.50;6.28;;;;;;;;;;5052730;28;20059;-84
2024/01/06 02:19:24;;;;;;;12.13;6.28;;;;;;;;;;5048024;28;20039;-83
2024/01/06 02:21:53;;;;;;;9.85;6.38;;;;;;;;;;5046522;28;20048;-83
2024/01/06 02:24:19;;;;;;;10.25;6.15;;;;;;;;;;5059824;28;20017;-84
2024/01/06 02:26:44;;;;;;;13.25;6.50;;;;;;;;;;5056387;28;20041;-84
2024/01/06 02:29:10;;;;;;;10.52;6.43;;;;;;;;;;5056927;28;20044;-84
2024/01/06 02:31:35;;;;;;;10.45;6.47;;;;;;;;;;5055983;28;20037;-86
2024/01/06 02:34:01;;;;;;;11.90;6.50;;;;;;;;;;5052734;28;20032;-83
2024/01/06 02:36:26;;;;;;;10.38;6.43;;;;;;;;;;5050514;28;20033;-84
2024/01/06 02:38:51;;;;;;;12.00;6.40;;;;;;;;;;5045761;23;20040;-83
2024/01/06 02:41:17;;;;;;;10.77;6.28;;;;;;;;;;5040832;28;20037;-83
2024/01/06 02:43:42;;;;;;;10.48;5.93;;;;;;;;;;5040987;28;20057;-82
2024/01/06 02:46:08;;;;;;;10.85;6.60;;;;;;;;;;5015152;28;20029;-83
2024/01/06 02:48:34;;;;;;;11.98;6.47;;;;;;;;;;5037456;28;20048;-83
2024/01/06 02:50:59;;;;;;;11.70;6.25;;;;;;;;;;5026376;28;20479;-83
2024/01/06 02:53:25;;;;;;;9.85;5.85;;;;;;;;;;5029228;28;20037;-83
2024/01/06 02:55:50;;;;;;;13.25;6.43;;;;;;;;;;5027518;28;20029;-82
2024/01/06 02:58:15;;;;;;;12.10;5.95;;;;;;;;;;5030110;28;20030;-82
2024/01/06 03:00:41;;;;;;;11.32;6.20;;;;;;;;;;5030574;28;20403;-83
2024/01/06 03:03:06;;;;;;;8.43;5.53;;;;;;;;;;5028594;28;20029;-83
2024/01/06 03:05:32;;;;;;;9.25;5.90;;;;;;;;;;5028920;28;20036;-83
2024/01/06 03:07:57;;;;;;;9.30;5.80;;;;;;;;;;5026524;28;20025;-83
2024/01/06 03:10:23;;;;;;;9.50;5.80;;;;;;;;;;5027327;28;20112;-83
2024/01/06 03:12:48;;;;;;;10.05;6.05;;;;;;;;;;5025639;28;20022;-83
2024/01/06 03:15:14;;;;;;;10.73;6.13;;;;;;;;;;5012573;28;20488;-83
2024/01/06 03:17:39;;;;;;;10.38;6.03;;;;;;;;;;5024598;28;20036;-83
2024/01/06 03:20:06;;;;;;;10.40;5.68;;;;;;;;;;5030122;28;20037;-83
2024/01/06 03:22:31;;;;;;;10.25;5.93;;;;;;;;;;5027357;28;20025;-83
2024/01/06 03:24:57;;;;;;;10.88;5.93;;;;;;;;;;5010101;28;20033;-83
2024/01/06 03:27:22;;;;;;;8.40;5.53;;;;;;;;;;5026474;28;20026;-83
2024/01/06 03:29:48;;;;;;;8.98;5.70;;;;;;;;;;5010734;28;20068;-82
2024/01/06 03:32:13;;;;;;;10.23;5.60;;;;;;;;;;5028435;28;20033;-82
2024/01/06 03:34:40;;;;;;;10.25;6.05;;;;;;;;;;5028594;28;20432;-83
2024/01/06 03:37:06;;;;;;;10.13;6.10;;;;;;;;;;5028415;28;20025;-82
2024/01/06 03:39:31;;;;;;;10.57;6.03;;;;;;;;;;5030223;28;20411;-83
2024/01/06 03:41:57;;;;;;;10.57;5.90;;;;;;;;;;5028189;28;20038;-83
2024/01/06 03:44:22;;;;;;;10.93;5.90;;;;;;;;;;5027846;28;20029;-83
2024/01/06 03:46:48;;;;;;;11.32;6.13;;;;;;;;;;5028856;28;20526;-82
2024/01/06 03:49:13;;;;;;;10.10;6.15;;;;;;;;;;5011095;28;20028;-83
2024/01/06 03:51:39;;;;;;;9.85;5.55;;;;;;;;;;5009777;28;20095;-82
2024/01/06 03:54:04;;;;;;;10.30;6.00;;;;;;;;;;5008359;28;20025;-83
2024/01/06 03:56:30;;;;;;;11.57;6.80;;;;;;;;;;5026772;28;20154;-83
2024/01/06 03:58:55;;;;;;;11.38;6.57;;;;;;;;;;5026321;28;20067;-83
2024/01/06 04:01:21;;;;;;;10.23;5.95;;;;;;;;;;5029030;28;20111;-83
2024/01/06 04:03:46;;;;;;;10.88;6.22;;;;;;;;;;5026986;28;20026;-81
2024/01/06 04:06:12;;;;;;;10.32;6.20;;;;;;;;;;5029429;28;20492;-83
2024/01/06 04:08:41;;;;;;;11.80;6.50;;;;;;;;;;5026039;28;20116;-82
2024/01/06 04:11:07;;;;;;;9.20;5.88;;;;;;;;;;5021679;28;20050;-83
2024/01/06 04:13:33;;;;;;;9.68;6.20;;;;;;;;;;5027439;28;20454;-83
2024/01/06 04:15:58;;;;;;;10.95;6.05;;;;;;;;;;5029564;28;20061;-83
2024/01/06 04:18:23;;;;;;;10.85;6.47;;;;;;;;;;5027507;28;20037;-83
2024/01/06 04:20:49;;;;;;;8.38;5.82;;;;;;;;;;5028404;28;20033;-83
2024/01/06 04:23:14;;;;;;;9.57;6.03;;;;;;;;;;5028978;28;20117;-83
2024/01/06 04:25:40;;;;;;;9.70;6.63;;;;;;;;;;5028238;28;20029;-83
2024/01/06 04:28:05;;;;;;;9.45;6.53;;;;;;;;;;5027973;28;20051;-83
2024/01/06 04:30:31;;;;;;;12.48;6.50;;;;;;;;;;5027826;28;20580;-83
2024/01/06 04:32:57;;;;;;;8.77;5.90;;;;;;;;;;5024400;28;20033;-83
2024/01/06 04:35:25;;;;;;;10.02;6.45;;;;;;;;;;5025449;28;20025;-83
2024/01/06 04:37:50;;;;;;;10.85;6.20;;;;;;;;;;5027748;28;20033;-83
2024/01/06 04:40:16;;;;;;;8.90;5.80;;;;;;;;;;5019855;28;20022;-83
2024/01/06 04:42:42;;;;;;;10.70;6.63;;;;;;;;;;5028232;28;20042;-83
2024/01/06 04:45:08;;;;;;;10.38;5.85;;;;;;;;;;5029532;28;20438;-83
2024/01/06 04:47:33;;;;;;;10.88;6.40;;;;;;;;;;5028440;28;20030;-83
2024/01/06 04:49:59;;;;;;;9.48;6.00;;;;;;;;;;5027022;28;20117;-83
2024/01/06 04:52:24;;;;;;;7.88;5.32;;;;;;;;;;5012157;28;20032;-83
2024/01/06 04:54:50;;;;;;;8.70;5.38;;;;;;;;;;5031601;28;20057;-83
2024/01/06 04:57:16;;;;;;;6.40;4.72;;;;;;;;;;5032836;28;20032;-84
2024/01/06 04:59:41;;;;;;;8.32;4.85;;;;;;;;;;5031901;28;20029;-83
2024/01/06 05:02:07;;;;;;;8.75;4.78;;;;;;;;;;5033174;28;20060;-83
2024/01/06 05:04:32;;;;;;;7.32;4.30;;;;;;;;;;5033445;28;20487;-83
2024/01/06 05:06:58;;;;;;;8.23;4.43;;;;;;;;;;5033356;28;20411;-83
2024/01/06 05:09:25;;;;;;;5.68;3.97;;;;;;;;;;5032816;28;20039;-83
2024/01/06 05:11:50;;;;;;;6.45;3.70;;;;;;;;;;5029091;28;20043;-83
2024/01/06 05:14:16;;;;;;;6.32;3.65;;;;;;;;;;5008708;28;20026;-83
2024/01/06 05:16:42;;;;;;;5.07;3.20;;;;;;;;;;5033046;28;20495;-83
2024/01/06 05:19:08;;;;;;;5.95;3.55;;;;;;;;;;5013595;28;20443;-83
2024/01/06 05:21:34;;;;;;;5.57;3.85;;;;;;;;;;5014942;28;20065;-83
2024/01/06 05:23:59;;;;;;;5.82;3.47;;;;;;;;;;5033949;28;20030;-83
2024/01/06 05:26:25;;;;;;;6.82;3.70;;;;;;;;;;5033862;28;20116;-83
2024/01/06 05:28:52;;;;;;;4.30;3.30;;;;;;;;;;5033599;28;20037;-83
2024/01/06 05:31:17;;;;;;;4.82;3.20;;;;;;;;;;5032175;28;20041;-83
2024/01/06 05:33:43;;;;;;;5.82;3.17;;;;;;;;;;5029649;28;20041;-83
2024/01/06 05:36:08;;;;;;;6.88;3.38;;;;;;;;;;5026094;28;20037;-83
2024/01/06 05:38:34;;;;;;;4.47;2.88;;;;;;;;;;5033651;28;20645;-83
2024/01/06 05:40:59;;;;;;;6.57;3.20;;;;;;;;;;5031016;28;20084;-83
2024/01/06 05:43:25;;;;;;;4.65;3.30;;;;;;;;;;5015237;28;20072;-83
2024/01/06 05:45:51;;;;;;;3.80;2.90;;;;;;;;;;5032978;28;20037;-83
2024/01/06 05:48:17;;;;;;;4.78;3.20;;;;;;;;;;5034209;28;20493;-83
2024/01/06 05:50:42;;;;;;;4.07;2.95;;;;;;;;;;5030308;28;20030;-83
2024/01/06 05:53:08;;;;;;;3.55;2.70;;;;;;;;;;5004935;28;20507;-83
2024/01/06 05:55:33;;;;;;;5.30;3.10;;;;;;;;;;5013823;28;20021;-81
2024/01/06 05:58:00;;;;;;;5.35;2.90;;;;;;;;;;5015411;28;20545;-83
2024/01/06 06:00:26;;;;;;;3.88;2.85;;;;;;;;;;5031357;28;20048;-83
2024/01/06 06:02:52;;;;;;;4.05;3.03;;;;;;;;;;5030339;28;20503;-83
2024/01/06 06:05:17;;;;;;;4.97;3.03;;;;;;;;;;5033269;28;20033;-83
2024/01/06 06:07:43;;;;;;;5.03;3.22;;;;;;;;;;5031780;28;20037;-83
2024/01/06 06:10:10;;;;;;;5.38;3.40;;;;;;;;;;5032572;28;20087;-82
2024/01/06 06:12:36;;;;;;;4.82;3.45;;;;;;;;;;5029305;28;20108;-84
2024/01/06 06:15:03;;;;;;;5.60;3.55;;;;;;;;;;5026303;28;20569;-83
2024/01/06 06:17:30;;;;;;;6.03;3.90;;;;;;;;;;5031760;28;20037;-83
2024/01/06 06:19:57;;;;;;;5.78;3.92;;;;;;;;;;5031242;28;20112;-83
2024/01/06 06:22:23;;;;;;;5.68;3.75;;;;;;;;;;5030192;28;20033;-83
2024/01/06 06:24:48;;;;;;;5.50;3.72;;;;;;;;;;5030606;28;20034;-83
2024/01/06 06:27:14;;;;;;;6.70;4.03;;;;;;;;;;5030437;28;20064;-83
2024/01/06 06:29:39;;;;;;;6.30;4.20;;;;;;;;;;5031362;28;20029;-83
2024/01/06 06:32:05;;;;;;;6.13;4.43;;;;;;;;;;5026921;28;20553;-83
2024/01/06 06:34:30;;;;;;;6.47;4.57;;;;;;;;;;5009040;28;20040;-83
2024/01/06 06:36:56;;;;;;;6.18;4.35;;;;;;;;;;5028597;28;20033;-82
2024/01/06 06:39:21;;;;;;;6.72;4.88;;;;;;;;;;5031043;28;20084;-83
2024/01/06 06:41:47;;;;;;;6.60;5.10;;;;;;;;;;5013866;28;20041;-82
2024/01/06 06:44:12;;;;;;;7.25;5.22;;;;;;;;;;5032289;28;20030;-83
2024/01/06 06:46:38;;;;;;;7.53;5.28;;;;;;;;;;5025496;28;20037;-83
2024/01/06 06:49:03;;;;;;;6.00;4.70;;;;;;;;;;5031332;28;20037;-83
2024/01/06 06:51:30;;;;;;;6.90;4.65;;;;;;;;;;5032216;28;20033;-83
2024/01/06 06:53:56;;;;;;;7.47;5.18;;;;;;;;;;5027605;28;20033;-84
2024/01/06 06:56:22;;;;;;;7.95;5.00;;;;;;;;;;5030101;28;20052;-84
2024/01/06 06:58:47;;;;;;;6.20;4.60;;;;;;;;;;5030097;28;20029;-83
2024/01/06 07:01:15;;;;;;;6.18;4.72;;;;;;;;;;5031160;28;20041;-84
2024/01/06 07:03:40;;;;;;;7.75;4.60;;;;;;;;;;5029296;28;20044;-83
2024/01/06 07:06:06;;;;;;;6.63;4.90;;;;;;;;;;5031538;28;20030;-82
2024/01/06 07:08:31;;;;;;;6.55;4.80;;;;;;;;;;5031291;28;20036;-82
2024/01/06 07:10:57;;;;;;;6.93;4.80;;;;;;;;;;5030620;28;20037;-82
2024/01/06 07:13:22;;;;;;;5.55;4.20;;;;;;;;;;5029975;28;20503;-83
2024/01/06 07:15:47;;;;;;;6.13;4.15;;;;;;;;;;5026500;28;20041;-83
2024/01/06 07:18:13;;;;;;;5.35;4.20;;;;;;;;;;5029312;28;20024;-82
2024/01/06 07:20:38;;;;;;;6.95;4.60;;;;;;;;;;5013959;28;20033;-82
2024/01/06 07:23:04;;;;;;;7.72;4.45;;;;;;;;;;5030594;28;20017;-82
2024/01/06 07:25:30;;;;;;;6.65;4.75;;;;;;;;;;5031951;28;20087;-82
2024/01/06 07:27:56;;;;;;;6.47;4.60;;;;;;;;;;5030313;28;20025;-84
2024/01/06 07:30:21;;;;;;;5.95;4.22;;;;;;;;;;5031488;28;20036;-82
2024/01/06 07:32:47;;;;;;;6.50;4.55;;;;;;;;;;5028023;28;20033;-82
2024/01/06 07:35:13;;;;;;;6.38;4.60;;;;;;;;;;5006554;28;20049;-81
2024/01/06 07:37:39;;;;;;;6.13;4.15;;;;;;;;;;5022858;28;20048;-82
2024/01/06 07:40:05;;;;;;;5.57;4.43;;;;;;;;;;5004253;28;20021;-82
2024/01/06 07:42:31;;;;;;;6.47;4.90;;;;;;;;;;5029682;28;20025;-81
2024/01/06 07:44:57;;;;;;;5.90;4.30;;;;;;;;;;5027309;28;20041;-82
2024/01/06 07:47:22;;;;;;;6.63;4.47;;;;;;;;;;5023894;28;20029;-82
2024/01/06 07:49:48;;;;;;;5.45;4.10;;;;;;;;;;5024704;28;20057;-81
2024/01/06 07:52:13;;;;;;;5.13;3.92;;;;;;;;;;5026517;28;20031;-81
2024/01/06 07:54:41;;;;;;;6.15;4.30;;;;;;;;;;5047949;22;20447;-83
2024/01/06 07:57:11;;;;;;;5.13;3.90;;;;;;;;;;5048350;28;20498;-83
2024/01/06 07:59:38;;;;;;;5.85;4.30;;;;;;;;;;5050557;28;20031;-84
2024/01/06 08:02:17;;;;;;;4.75;3.70;;;;;;;;;;5043140;28;20116;-83
2024/01/06 08:04:45;;;;;;;5.45;4.00;;;;;;;;;;5051204;28;20044;-83
2024/01/06 08:07:10;;;;;;;5.47;4.00;;;;;;;;;;5053090;28;20033;-84
2024/01/06 08:09:36;;;;;;;5.80;4.40;;;;;;;;;;5051920;28;20049;-84
2024/01/06 08:12:03;;;;;;;6.80;4.88;;;;;;;;;;5052155;28;20056;-84
2024/01/06 08:14:28;;;;;;;6.25;4.88;;;;;;;;;;5053916;28;20033;-83
2024/01/06 08:16:54;;;;;;;5.88;4.22;;;;;;;;;;5052523;28;20662;-83
2024/01/06 08:19:20;;;;;;;7.60;5.28;;;;;;;;;;5051407;28;20043;-84
2024/01/06 08:21:45;;;;;;;7.28;4.65;;;;;;;;;;5052325;28;20120;-84
2024/01/06 08:24:11;;;;;;;7.25;4.75;;;;;;;;;;5047450;28;20133;-84
2024/01/06 08:26:36;;;;;;;7.32;4.75;;;;;;;;;;5044096;28;20032;-83
2024/01/06 08:29:02;;;;;;;9.23;4.88;;;;;;;;;;5053502;28;20068;-84
2024/01/06 08:31:27;;;;;;;7.95;5.93;;;;;;;;;;5052738;28;20044;-84
2024/01/06 08:33:53;;;;;;;6.53;4.55;;;;;;;;;;5051148;28;20029;-83
2024/01/06 08:36:18;;;;;;;7.45;4.63;;;;;;;;;;5052166;28;20021;-87
2024/01/06 08:38:44;;;;;;;7.35;4.72;;;;;;;;;;5043232;28;20506;-83
2024/01/06 08:41:09;;;;;;;4.35;3.50;;;;;;;;;;5052129;28;20644;-83
2024/01/06 08:43:35;;;;;;;6.05;4.28;;;;;;;;;;5045734;28;20033;-82
2024/01/06 08:46:02;;;;;;;6.13;4.30;;;;;;;;;;5050896;28;20029;-83
2024/01/06 08:48:27;;;;;;;6.82;4.53;;;;;;;;;;5052237;28;20047;-82
2024/01/06 08:50:52;;;;;;;5.50;4.00;;;;;;;;;;5051773;28;20037;-81
2024/01/06 08:53:18;;;;;;;5.78;4.40;;;;;;;;;;5052243;28;20035;-82
2024/01/06 08:55:43;;;;;;;6.63;4.78;;;;;;;;;;5046885;28;20446;-82
2024/01/06 08:58:09;;;;;;;5.95;4.30;;;;;;;;;;5052108;28;20097;-83
2024/01/06 09:00:34;;;;;;;6.18;4.20;;;;;;;;;;5051429;28;20483;-82
2024/01/06 09:03:00;;;;;;;7.80;4.80;;;;;;;;;;5052368;28;20056;-82
2024/01/06 09:05:25;;;;;;;6.60;4.57;;;;;;;;;;5051962;28;20554;-82
2024/01/06 09:07:51;;;;;;;6.65;4.80;;;;;;;;;;5052549;28;20044;-82
2024/01/06 09:10:18;;;;;;;6.25;4.50;;;;;;;;;;5051879;28;20105;-82
2024/01/06 09:12:43;;;;;;;6.00;4.30;;;;;;;;;;5052146;28;20036;-82
2024/01/06 09:15:09;;;;;;;6.18;4.43;;;;;;;;;;5052369;28;20037;-82
2024/01/06 09:17:34;;;;;;;5.07;3.90;;;;;;;;;;5051446;28;20040;-82
2024/01/06 09:20:01;;;;;;;7.25;4.95;;;;;;;;;;5052277;28;20055;-82
2024/01/06 09:22:38;;;;;;;7.53;5.72;;;;;;;;;;5047849;28;20025;-81
2024/01/06 09:25:04;;;;;;;7.38;4.95;;;;;;;;;;5051625;28;20405;-81
2024/01/06 09:27:30;;;;;;;6.68;4.93;;;;;;;;;;5046723;28;20029;-81
2024/01/06 09:29:55;;;;;;;6.28;4.40;;;;;;;;;;5051315;28;20124;-81
2024/01/06 09:32:22;;;;;;;5.45;3.97;;;;;;;;;;5047940;28;20037;-81
2024/01/06 09:34:48;;;;;;;13.52;9.25;;;;;;;;;;5051051;28;20123;-82
2024/01/06 09:37:14;;;;;;;9.85;6.97;;;;;;;;;;5054994;28;20049;-84
2024/01/06 09:39:39;;;;;;;6.43;4.43;;;;;;;;;;5052990;28;20551;-83
2024/01/06 09:42:05;;;;;;;5.68;3.90;;;;;;;;;;5055511;28;20036;-82
2024/01/06 09:44:32;;;;;;;5.50;4.15;;;;;;;;;;5055041;28;20114;-83
2024/01/06 09:46:59;;;;;;;9.30;6.07;;;;;;;;;;5054141;28;20068;-83
2024/01/06 09:49:28;;;;;;;6.35;4.47;;;;;;;;;;5051681;28;20040;-83
2024/01/06 09:52:00;;;;;;;6.82;4.70;;;;;;;;;;5055324;28;20052;-83
2024/01/06 09:54:29;;;;;;;7.95;4.50;;;;;;;;;;5069088;28;20041;-83
2024/01/06 09:56:56;;;;;;;6.03;4.38;;;;;;;;;;5046776;28;20089;-82
2024/01/06 09:59:22;;;;;;;5.70;3.60;;;;;;;;;;5055781;28;20044;-82
2024/01/06 10:01:49;;;;;;;7.15;3.50;;;;;;;;;;5069390;28;20033;-82
2024/01/06 10:04:14;;;;;;;4.70;3.47;;;;;;;;;;5055000;28;20422;-83
2024/01/06 10:06:41;;;;;;;5.13;3.47;;;;;;;;;;5055337;28;20037;-83
2024/01/06 10:09:07;;;;;;;6.07;3.92;;;;;;;;;;5054055;28;20039;-83
2024/01/06 10:11:35;;;;;;;6.85;3.65;;;;;;;;;;5053922;28;20033;-83
2024/01/06 10:14:03;;;;;;;5.05;3.60;;;;;;;;;;5052266;28;20125;-83
2024/01/06 10:16:28;;;;;;;4.47;2.72;;;;;;;;;;5054899;28;20036;-83
2024/01/06 10:18:54;;;;;;;3.95;2.72;;;;;;;;;;5054669;28;20041;-83
2024/01/06 10:21:24;;;;;;;3.97;2.40;;;;;;;;;;5054399;28;20033;-82
2024/01/06 10:23:50;;;;;;;4.15;2.92;;;;;;;;;;5055418;28;20124;-83
2024/01/06 10:26:17;;;;;;;3.88;2.30;;;;;;;;;;5054928;28;20057;-80
2024/01/06 10:28:43;;;;;;;3.55;2.47;;;;;;;;;;5052810;28;20044;-82
2024/01/06 10:31:09;;;;;;;4.85;2.72;;;;;;;;;;5052326;28;20030;-84
2024/01/06 10:33:34;;;;;;;3.40;2.35;;;;;;;;;;5047193;28;20491;-83
2024/01/06 10:36:00;;;;;;;3.63;2.50;;;;;;;;;;5054156;28;20025;-83
2024/01/06 10:38:26;;;;;;;2.63;1.85;;;;;;;;;;5051333;28;20029;-83
2024/01/06 10:41:00;;;;;;;3.35;2.30;;;;;;;;;;5054215;28;20091;-83
2024/01/06 10:43:28;;;;;;;;;;;;;;;;;;5070448;28;20037;-80
2024/01/06 10:45:54;;;;;;;3.72;2.05;;;;;;;;;;5053785;28;19917;-82
2024/01/06 10:48:22;;;;;;;2.72;2.10;;;;;;;;;;5053636;28;20043;-82
2024/01/06 10:50:48;;;;;;;2.80;1.98;;;;;;;;;;5054687;28;20036;-82
2024/01/06 10:53:16;;;;;;;4.05;2.40;;;;;;;;;;5054666;28;20486;-83
2024/01/06 10:55:42;;;;;;;2.90;2.10;;;;;;;;;;5055420;28;20041;-81
2024/01/06 10:58:09;;;;;;;3.95;2.20;;;;;;;;;;5056588;28;20087;-81
2024/01/06 11:00:34;;;;;;;4.25;2.20;;;;;;;;;;5069098;28;20052;-82
2024/01/06 11:03:00;;;;;;;2.58;1.42;;;;;;;;;;5053774;28;20040;-82
2024/01/06 11:05:27;;;;;;;1.27;0.93;;;;;;;;;;5054592;28;20017;-82
2024/01/06 11:08:00;;;;;;;0.90;0.80;;;;;;;;;;5053880;28;20178;-83
2024/01/06 11:10:29;;;;;;;1.52;0.70;;;;;;;;;;5054915;28;20029;-82
2024/01/06 11:13:14;;;;;;;1.23;0.90;;;;;;;;;;5053480;28;20524;-83
2024/01/06 11:15:52;;;;;;;1.00;0.90;;;;;;;;;;5053375;28;20033;-84
2024/01/06 11:18:37;;;;;;;0.70;0.70;;;;;;;;;;5053495;28;20044;-83
2024/01/06 11:21:14;;;;;;;0.90;0.70;;;;;;;;;;5053265;28;20029;-84
2024/01/06 11:23:40;;;;;;;0.50;0.50;;;;;;;;;;5050461;28;20047;-83
2024/01/06 11:26:06;;;;;;;0.70;0.60;;;;;;;;;;5053211;28;20094;-82
2024/01/06 11:28:44;;;;;;;0.85;0.50;;;;;;;;;;5053610;28;20522;-82
2024/01/06 11:31:09;;;;;;;0.55;0.55;;;;;;;;;;5044435;28;20387;-82
2024/01/06 11:33:47;;;;;;;0.75;0.60;;;;;;;;;;5053646;28;20043;-82
2024/01/06 11:36:15;;;;;;;1.25;0.50;;;;;;;;;;5033062;28;20009;-83
2024/01/06 11:38:40;;;;;;;0.63;0.50;;;;;;;;;;5053277;28;20056;-82
2024/01/06 11:41:07;;;;;;;0.80;0.40;;;;;;;;;;5052850;28;20425;-81
2024/01/06 11:43:35;;;;;;;0.70;0.50;;;;;;;;;;5052909;28;20499;-81
2024/01/06 11:46:02;;;;;;;0.93;0.50;;;;;;;;;;5052636;28;20267;-81
2024/01/06 11:48:31;;;;;;;0.70;0.50;;;;;;;;;;5053268;28;20033;-82
2024/01/06 11:50:58;;;;;;;0.40;0.40;;;;;;;;;;5052544;28;20525;-82
2024/01/06 11:53:26;;;;;;;0.40;0.40;;;;;;;;;;5053010;28;20547;-82
2024/01/06 11:55:52;;;;;;;0.52;0.50;;;;;;;;;;5053443;28;20041;-83
2024/01/06 11:58:17;;;;;;;0.55;0.50;;;;;;;;;;5054147;28;20086;-83
2024/01/06 12:00:43;;;;;;;0.63;0.60;;;;;;;;;;5050573;28;20037;-83
2024/01/06 12:03:09;;;;;;;1.92;0.60;;;;;;;;;;5052840;28;20098;-84
2024/01/06 12:05:35;;;;;;;0.65;0.45;;;;;;;;;;5053521;28;20441;-81
2024/01/06 12:08:06;;;;;;;0.50;0.50;;;;;;;;;;5049791;28;20055;-83
2024/01/06 12:10:33;;;;;;;0.47;0.40;;;;;;;;;;5052554;28;20434;-83
2024/01/06 12:13:00;;;;;;;0.82;0.50;;;;;;;;;;5052651;28;20071;-83
2024/01/06 12:15:27;;;;;;;0.93;0.50;;;;;;;;;;5048787;28;20120;-83
2024/01/06 12:17:52;;;;;;;0.43;0.43;;;;;;;;;;5052860;28;20055;-83
2024/01/06 12:20:18;;;;;;;0.60;0.60;;;;;;;;;;5052489;28;20029;-83
2024/01/06 12:22:44;;;;;;;0.52;0.52;;;;;;;;;;5052457;28;20484;-84
2024/01/06 12:25:10;;;;;;;0.93;0.65;;;;;;;;;;5068642;28;20029;-82
2024/01/06 12:27:35;;;;;;;0.50;0.50;;;;;;;;;;5065518;28;20415;-82
2024/01/06 12:30:02;;;;;;;0.50;0.50;;;;;;;;;;5049664;28;21031;-83
2024/01/06 12:32:28;;;;;;;0.52;0.52;;;;;;;;;;5052523;28;20033;-83
2024/01/06 12:34:55;;;;;;;0.50;0.50;;;;;;;;;;5052993;28;20028;-83
2024/01/06 12:37:22;;;;;;;0.40;0.40;;;;;;;;;;5050922;28;20051;-83
2024/01/06 12:39:48;;;;;;;1.30;0.75;;;;;;;;;;5051952;28;20033;-83
2024/01/06 12:42:16;;;;;;;0.73;0.70;;;;;;;;;;5052830;28;20043;-82
2024/01/06 12:44:42;;;;;;;0.63;0.63;;;;;;;;;;5052431;28;20052;-83
2024/01/06 12:47:08;;;;;;;0.82;0.63;;;;;;;;;;5050486;28;20033;-82
2024/01/06 12:49:33;;;;;;;1.27;0.88;;;;;;;;;;5051660;28;20056;-83
2024/01/06 12:51:59;;;;;;;1.45;1.10;;;;;;;;;;5052155;28;20040;-83
2024/01/06 12:54:24;;;;;;;2.28;1.30;;;;;;;;;;5066909;28;20037;-83
2024/01/06 12:56:50;;;;;;;1.98;1.00;;;;;;;;;;5051810;28;20048;-83
2024/01/06 12:59:15;;;;;;;2.22;1.35;;;;;;;;;;5044347;28;20021;-83
2024/01/06 13:01:42;;;;;;;12.73;8.93;;;;;;;;;;5051508;28;20040;-83
2024/01/06 13:04:07;;;;;;;3.20;2.38;;;;;;;;;;5040870;28;20095;-83
2024/01/06 13:06:33;;;;;;;3.38;1.70;;;;;;;;;;5052659;28;20048;-83
2024/01/06 13:08:59;;;;;;;1.70;1.30;;;;;;;;;;5051279;28;20534;-84
2024/01/06 13:11:24;;;;;;;2.28;1.30;;;;;;;;;;5065511;28;20453;-83
2024/01/06 13:13:50;;;;;;;1.50;1.20;;;;;;;;;;5044993;28;20037;-83
2024/01/06 13:16:15;;;;;;;3.47;2.30;;;;;;;;;;5056599;28;20018;-84
2024/01/06 13:18:41;;;;;;;6.75;4.38;;;;;;;;;;5056601;28;20032;-82
2024/01/06 13:21:06;;;;;;;4.07;3.05;;;;;;;;;;5058331;28;20028;-83
2024/01/06 13:23:32;;;;;;;3.90;2.78;;;;;;;;;;5059208;28;20109;-84
2024/01/06 13:25:57;;;;;;;2.22;1.75;;;;;;;;;;5055674;28;20433;-82
2024/01/06 13:28:24;;;;;;;6.32;2.95;;;;;;;;;;5055123;28;20052;-83
2024/01/06 13:30:50;;;;;;;205.38;88.65;;;;;;;;;;5056212;28;20036;-84
2024/01/06 13:33:15;;;;;;;8.23;3.95;;;;;;;;;;5054626;28;20410;-82
2024/01/06 13:35:41;;;;;;;25.65;13.70;;;;;;;;;;5057248;28;20037;-83
2024/01/06 13:38:08;;;;;;;15.20;7.10;;;;;;;;;;5056733;28;20044;-81
2024/01/06 13:40:34;;;;;;;6.70;2.90;;;;;;;;;;5054796;28;20426;-83
2024/01/06 13:43:00;;;;;;;2.45;1.27;;;;;;;;;;5051470;28;20029;-82
2024/01/06 13:45:26;;;;;;;3.45;2.03;;;;;;;;;;5052591;28;20087;-83
2024/01/06 13:47:52;;;;;;;13.68;8.77;;;;;;;;;;5055067;28;20068;-82
2024/01/06 13:50:18;;;;;;;6.88;3.08;;;;;;;;;;5048780;28;20052;-81
2024/01/06 13:52:45;;;;;;;5.88;2.60;;;;;;;;;;5054219;28;20037;-81
2024/01/06 13:55:11;;;;;;;11.40;7.32;;;;;;;;;;5048437;28;20055;-82
2024/01/06 13:57:41;;;;;;;35.95;25.00;;;;;;;;;;5054082;28;20506;-82
2024/01/06 14:00:10;;;;;;;7.78;4.18;;;;;;;;;;5053226;28;20032;-83
2024/01/06 14:02:39;;;;;;;9.07;5.70;;;;;;;;;;5055503;28;20087;-82
2024/01/06 14:05:08;;;;;;;10.10;3.20;;;;;;;;;;5055082;28;20036;-83
2024/01/06 14:07:34;;;;;;;4.90;2.63;;;;;;;;;;5055450;28;20037;-82
2024/01/06 14:10:00;;;;;;;4.82;2.25;;;;;;;;;;5055097;28;20045;-82
2024/01/06 14:12:25;;;;;;;5.28;3.17;;;;;;;;;;5068561;28;20368;-82
2024/01/06 14:14:51;;;;;;;13.80;7.32;;;;;;;;;;5053721;28;20530;-81
2024/01/06 14:17:16;;;;;;;13.27;7.30;;;;;;;;;;5054233;28;20088;-82
2024/01/06 14:19:42;;;;;;;10.07;5.82;;;;;;;;;;5054063;28;20041;-82
2024/01/06 14:22:07;;;;;;;3.80;2.00;;;;;;;;;;5052538;28;20040;-82
2024/01/06 14:24:33;;;;;;;5.03;2.53;;;;;;;;;;5054829;28;20025;-82
2024/01/06 14:26:58;;;;;;;1.98;1.10;;;;;;;;;;5054948;28;20048;-82
2024/01/06 14:29:24;;;;;;;7.18;4.03;;;;;;;;;;5054230;28;20032;-82
2024/01/06 14:31:49;;;;;;;7.95;6.05;;;;;;;;;;5054671;28;20502;-82